sensor_id;sensor_type;location;lat;lon;timestamp;temperature;humidity
25300;DHT22;13241;51.208;4.432;2022-12-19T00:01:41;3.50;99.90
25300;DHT22;13241;51.208;4.432;2022-12-19T00:04:10;3.50;99.90
25300;DHT22;13241;51.208;4.432;2022-12-19T00:06:38;3.60;99.90
25300;DHT22;13241;51.208;4.432;2022-12-19T00:09:10;3.60;99.90
25300;DHT22;13241;51.208;4.432;2022-12-19T00:11:38;3.70;99.90
25300;DHT22;13241;51.208;4.432;2022-12-19T00:14:06;3.70;99.90
25300;DHT22;13241;51.208;4.432;2022-12-19T00:16:32;3.80;99.90
25300;DHT22;13241;51.208;4.432;2022-12-19T00:19:00;3.80;99.90
25300;DHT22;13241;51.208;4.432;2022-12-19T00:21:29;3.90;99.90
25300;DHT22;13241;51.208;4.432;2022-12-19T00:24:01;3.90;99.90
25300;DHT22;13241;51.208;4.432;2022-12-19T00:26:31;4.00;99.90
25300;DHT22;13241;51.208;4.432;2022-12-19T00:29:03;4.00;99.90
25300;DHT22;13241;51.208;4.432;2022-12-19T00:31:35;4.10;99.90
25300;DHT22;13241;51.208;4.432;2022-12-19T00:34:03;4.20;99.90
25300;DHT22;13241;51.208;4.432;2022-12-19T00:36:32;4.20;99.90
25300;DHT22;13241;51.208;4.432;2022-12-19T00:39:00;4.30;99.90
25300;DHT22;13241;51.208;4.432;2022-12-19T00:41:35;4.30;99.90
25300;DHT22;13241;51.208;4.432;2022-12-19T00:44:08;4.60;99.90
25300;DHT22;13241;51.208;4.432;2022-12-19T00:46:35;4.50;99.90
25300;DHT22;13241;51.208;4.432;2022-12-19T00:49:04;4.50;99.90
25300;DHT22;13241;51.208;4.432;2022-12-19T00:51:33;4.50;99.90
25300;DHT22;13241;51.208;4.432;2022-12-19T00:54:00;4.50;99.90
25300;DHT22;13241;51.208;4.432;2022-12-19T00:56:32;4.50;99.90
25300;DHT22;13241;51.208;4.432;2022-12-19T00:59:06;4.50;99.90
25300;DHT22;13241;51.208;4.432;2022-12-19T01:01:36;4.50;99.90
25300;DHT22;13241;51.208;4.432;2022-12-19T01:04:06;4.50;99.90
25300;DHT22;13241;51.208;4.432;2022-12-19T01:06:53;4.60;99.90
25300;DHT22;13241;51.208;4.432;2022-12-19T01:09:32;4.60;99.90
25300;DHT22;13241;51.208;4.432;2022-12-19T01:12:02;4.80;99.90
25300;DHT22;13241;51.208;4.432;2022-12-19T01:14:53;4.70;99.90
25300;DHT22;13241;51.208;4.432;2022-12-19T01:17:22;4.80;99.90
25300;DHT22;13241;51.208;4.432;2022-12-19T01:19:51;4.80;99.90
25300;DHT22;13241;51.208;4.432;2022-12-19T01:22:18;4.90;99.90
25300;DHT22;13241;51.208;4.432;2022-12-19T01:24:45;4.90;99.90
25300;DHT22;13241;51.208;4.432;2022-12-19T01:27:14;4.90;99.90
25300;DHT22;13241;51.208;4.432;2022-12-19T01:29:41;4.90;99.90
25300;DHT22;13241;51.208;4.432;2022-12-19T01:32:20;5.00;99.90
25300;DHT22;13241;51.208;4.432;2022-12-19T01:34:47;5.00;99.90
25300;DHT22;13241;51.208;4.432;2022-12-19T01:37:14;5.00;99.90
25300;DHT22;13241;51.208;4.432;2022-12-19T01:39:40;5.00;99.90
25300;DHT22;13241;51.208;4.432;2022-12-19T01:42:20;5.10;99.90
25300;DHT22;13241;51.208;4.432;2022-12-19T01:47:38;5.10;99.90
25300;DHT22;13241;51.208;4.432;2022-12-19T01:50:16;5.20;99.90
25300;DHT22;13241;51.208;4.432;2022-12-19T01:52:45;5.20;99.90
25300;DHT22;13241;51.208;4.432;2022-12-19T01:55:13;5.20;99.90
25300;DHT22;13241;51.208;4.432;2022-12-19T01:57:40;5.30;99.90
25300;DHT22;13241;51.208;4.432;2022-12-19T02:00:08;5.30;99.90
25300;DHT22;13241;51.208;4.432;2022-12-19T02:02:45;5.40;99.90
25300;DHT22;13241;51.208;4.432;2022-12-19T02:05:15;5.40;99.90
25300;DHT22;13241;51.208;4.432;2022-12-19T02:07:42;5.40;99.90
25300;DHT22;13241;51.208;4.432;2022-12-19T02:10:09;5.40;99.90
25300;DHT22;13241;51.208;4.432;2022-12-19T02:12:39;5.50;99.90
25300;DHT22;13241;51.208;4.432;2022-12-19T02:15:08;5.50;99.90
25300;DHT22;13241;51.208;4.432;2022-12-19T02:18:16;5.50;99.90
25300;DHT22;13241;51.208;4.432;2022-12-19T02:27:16;5.60;99.90
25300;DHT22;13241;51.208;4.432;2022-12-19T02:30:05;5.70;99.90
25300;DHT22;13241;51.208;4.432;2022-12-19T02:35:55;5.70;99.90
25300;DHT22;13241;51.208;4.432;2022-12-19T02:41:42;5.90;99.90
25300;DHT22;13241;51.208;4.432;2022-12-19T02:47:08;5.90;99.90
25300;DHT22;13241;51.208;4.432;2022-12-19T02:49:37;5.90;99.90
25300;DHT22;13241;51.208;4.432;2022-12-19T02:55:03;6.00;99.90
25300;DHT22;13241;51.208;4.432;2022-12-19T02:57:32;6.00;99.90
25300;DHT22;13241;51.208;4.432;2022-12-19T03:02:52;6.10;99.90
25300;DHT22;13241;51.208;4.432;2022-12-19T03:05:44;6.10;99.90
25300;DHT22;13241;51.208;4.432;2022-12-19T03:11:07;6.20;99.90
25300;DHT22;13241;51.208;4.432;2022-12-19T03:13:42;6.20;99.90
25300;DHT22;13241;51.208;4.432;2022-12-19T03:16:11;6.20;99.90
25300;DHT22;13241;51.208;4.432;2022-12-19T03:18:38;6.30;99.90
25300;DHT22;13241;51.208;4.432;2022-12-19T03:21:18;6.30;99.90
25300;DHT22;13241;51.208;4.432;2022-12-19T03:23:47;6.30;99.90
25300;DHT22;13241;51.208;4.432;2022-12-19T03:26:18;6.30;99.90
25300;DHT22;13241;51.208;4.432;2022-12-19T03:29:02;6.40;99.90
25300;DHT22;13241;51.208;4.432;2022-12-19T03:31:33;6.40;99.90
25300;DHT22;13241;51.208;4.432;2022-12-19T03:34:17;6.40;99.90
25300;DHT22;13241;51.208;4.432;2022-12-19T03:36:48;6.40;99.90
25300;DHT22;13241;51.208;4.432;2022-12-19T03:39:19;6.50;99.90
25300;DHT22;13241;51.208;4.432;2022-12-19T03:41:48;6.50;99.90
25300;DHT22;13241;51.208;4.432;2022-12-19T03:44:38;6.50;99.90
25300;DHT22;13241;51.208;4.432;2022-12-19T03:49:48;6.60;99.90
25300;DHT22;13241;51.208;4.432;2022-12-19T03:55:12;6.60;99.90
25300;DHT22;13241;51.208;4.432;2022-12-19T03:57:46;6.70;99.90
25300;DHT22;13241;51.208;4.432;2022-12-19T04:00:16;6.60;99.90
25300;DHT22;13241;51.208;4.432;2022-12-19T04:02:51;6.70;99.90
25300;DHT22;13241;51.208;4.432;2022-12-19T04:05:24;6.70;99.90
25300;DHT22;13241;51.208;4.432;2022-12-19T04:07:57;6.80;99.90
25300;DHT22;13241;51.208;4.432;2022-12-19T04:10:29;6.80;99.90
25300;DHT22;13241;51.208;4.432;2022-12-19T04:13:01;6.80;99.90
25300;DHT22;13241;51.208;4.432;2022-12-19T04:18:16;6.80;99.90
25300;DHT22;13241;51.208;4.432;2022-12-19T04:20:51;6.80;99.90
25300;DHT22;13241;51.208;4.432;2022-12-19T04:23:34;6.70;99.90
25300;DHT22;13241;51.208;4.432;2022-12-19T04:26:03;6.90;99.90
25300;DHT22;13241;51.208;4.432;2022-12-19T04:28:35;6.90;99.90
25300;DHT22;13241;51.208;4.432;2022-12-19T04:31:04;6.90;99.90
25300;DHT22;13241;51.208;4.432;2022-12-19T04:33:32;7.00;99.90
25300;DHT22;13241;51.208;4.432;2022-12-19T04:35:59;7.00;99.90
25300;DHT22;13241;51.208;4.432;2022-12-19T04:38:26;7.00;99.90
25300;DHT22;13241;51.208;4.432;2022-12-19T04:40:53;7.00;99.90
25300;DHT22;13241;51.208;4.432;2022-12-19T04:43:20;7.00;99.90
25300;DHT22;13241;51.208;4.432;2022-12-19T04:45:47;7.10;99.90
25300;DHT22;13241;51.208;4.432;2022-12-19T04:48:19;7.10;99.90
25300;DHT22;13241;51.208;4.432;2022-12-19T04:50:46;7.10;99.90
25300;DHT22;13241;51.208;4.432;2022-12-19T04:53:13;7.10;99.90
25300;DHT22;13241;51.208;4.432;2022-12-19T04:55:39;7.10;99.90
25300;DHT22;13241;51.208;4.432;2022-12-19T04:58:07;7.20;99.90
25300;DHT22;13241;51.208;4.432;2022-12-19T05:00:33;7.20;99.90
25300;DHT22;13241;51.208;4.432;2022-12-19T05:03:00;7.20;99.90
25300;DHT22;13241;51.208;4.432;2022-12-19T05:05:28;7.20;99.90
25300;DHT22;13241;51.208;4.432;2022-12-19T05:07:54;7.20;99.90
25300;DHT22;13241;51.208;4.432;2022-12-19T05:10:21;7.20;99.90
25300;DHT22;13241;51.208;4.432;2022-12-19T05:12:48;7.30;99.90
25300;DHT22;13241;51.208;4.432;2022-12-19T05:15:15;7.30;99.90
25300;DHT22;13241;51.208;4.432;2022-12-19T05:17:42;7.30;99.90
25300;DHT22;13241;51.208;4.432;2022-12-19T05:20:10;7.40;99.90
25300;DHT22;13241;51.208;4.432;2022-12-19T05:22:36;7.40;99.90
25300;DHT22;13241;51.208;4.432;2022-12-19T05:25:04;7.40;99.90
25300;DHT22;13241;51.208;4.432;2022-12-19T05:27:31;7.40;99.90
25300;DHT22;13241;51.208;4.432;2022-12-19T05:29:58;7.50;99.90
25300;DHT22;13241;51.208;4.432;2022-12-19T05:32:24;7.50;99.90
25300;DHT22;13241;51.208;4.432;2022-12-19T05:34:51;7.50;99.90
25300;DHT22;13241;51.208;4.432;2022-12-19T05:37:18;7.50;99.90
25300;DHT22;13241;51.208;4.432;2022-12-19T05:39:45;7.50;99.90
25300;DHT22;13241;51.208;4.432;2022-12-19T05:42:11;7.50;99.90
25300;DHT22;13241;51.208;4.432;2022-12-19T05:44:38;7.60;99.90
25300;DHT22;13241;51.208;4.432;2022-12-19T05:47:05;7.60;99.90
25300;DHT22;13241;51.208;4.432;2022-12-19T05:49:32;7.60;99.90
25300;DHT22;13241;51.208;4.432;2022-12-19T05:51:59;7.60;99.90
25300;DHT22;13241;51.208;4.432;2022-12-19T05:54:25;7.60;99.90
25300;DHT22;13241;51.208;4.432;2022-12-19T05:56:52;7.60;99.90
25300;DHT22;13241;51.208;4.432;2022-12-19T05:59:19;7.60;99.90
25300;DHT22;13241;51.208;4.432;2022-12-19T06:01:46;7.60;99.90
25300;DHT22;13241;51.208;4.432;2022-12-19T06:04:12;7.70;99.90
25300;DHT22;13241;51.208;4.432;2022-12-19T06:06:39;7.70;99.90
25300;DHT22;13241;51.208;4.432;2022-12-19T06:09:06;7.80;99.90
25300;DHT22;13241;51.208;4.432;2022-12-19T06:11:33;7.80;99.90
25300;DHT22;13241;51.208;4.432;2022-12-19T06:14:00;7.80;99.90
25300;DHT22;13241;51.208;4.432;2022-12-19T06:16:27;7.80;99.90
25300;DHT22;13241;51.208;4.432;2022-12-19T06:18:54;7.80;99.90
25300;DHT22;13241;51.208;4.432;2022-12-19T06:21:22;7.90;99.90
25300;DHT22;13241;51.208;4.432;2022-12-19T06:23:49;7.90;99.90
25300;DHT22;13241;51.208;4.432;2022-12-19T06:26:19;7.90;99.90
25300;DHT22;13241;51.208;4.432;2022-12-19T06:28:47;7.90;99.90
25300;DHT22;13241;51.208;4.432;2022-12-19T06:31:15;7.90;99.90
25300;DHT22;13241;51.208;4.432;2022-12-19T06:33:42;7.90;99.90
25300;DHT22;13241;51.208;4.432;2022-12-19T06:36:17;7.70;99.90
25300;DHT22;13241;51.208;4.432;2022-12-19T06:38:45;7.90;99.90
25300;DHT22;13241;51.208;4.432;2022-12-19T06:41:14;7.90;99.90
25300;DHT22;13241;51.208;4.432;2022-12-19T06:44:07;7.90;99.90
25300;DHT22;13241;51.208;4.432;2022-12-19T06:46:36;8.00;99.90
25300;DHT22;13241;51.208;4.432;2022-12-19T06:49:06;8.00;99.90
25300;DHT22;13241;51.208;4.432;2022-12-19T06:51:33;8.00;99.90
25300;DHT22;13241;51.208;4.432;2022-12-19T06:54:01;8.00;99.90
25300;DHT22;13241;51.208;4.432;2022-12-19T06:56:36;8.10;99.90
25300;DHT22;13241;51.208;4.432;2022-12-19T06:59:04;8.10;99.90
25300;DHT22;13241;51.208;4.432;2022-12-19T07:04:24;8.20;99.90
25300;DHT22;13241;51.208;4.432;2022-12-19T07:06:52;8.20;99.90
25300;DHT22;13241;51.208;4.432;2022-12-19T07:09:19;8.20;99.90
25300;DHT22;13241;51.208;4.432;2022-12-19T07:11:47;8.20;99.90
25300;DHT22;13241;51.208;4.432;2022-12-19T07:14:14;8.20;99.90
25300;DHT22;13241;51.208;4.432;2022-12-19T07:16:40;8.30;99.90
25300;DHT22;13241;51.208;4.432;2022-12-19T07:19:08;8.20;99.90
25300;DHT22;13241;51.208;4.432;2022-12-19T07:21:37;8.30;99.90
25300;DHT22;13241;51.208;4.432;2022-12-19T07:24:05;8.30;99.90
25300;DHT22;13241;51.208;4.432;2022-12-19T07:26:34;8.30;99.90
25300;DHT22;13241;51.208;4.432;2022-12-19T07:29:03;8.30;99.90
25300;DHT22;13241;51.208;4.432;2022-12-19T07:31:31;8.40;99.90
25300;DHT22;13241;51.208;4.432;2022-12-19T07:33:58;8.40;99.90
25300;DHT22;13241;51.208;4.432;2022-12-19T07:36:25;8.40;99.90
25300;DHT22;13241;51.208;4.432;2022-12-19T07:38:55;8.40;99.90
25300;DHT22;13241;51.208;4.432;2022-12-19T07:41:22;8.40;99.90
25300;DHT22;13241;51.208;4.432;2022-12-19T07:43:49;8.50;99.90
25300;DHT22;13241;51.208;4.432;2022-12-19T07:46:16;8.50;99.90
25300;DHT22;13241;51.208;4.432;2022-12-19T07:48:43;8.60;99.90
25300;DHT22;13241;51.208;4.432;2022-12-19T07:51:10;8.60;99.90
25300;DHT22;13241;51.208;4.432;2022-12-19T07:53:38;8.60;99.90
25300;DHT22;13241;51.208;4.432;2022-12-19T07:56:05;8.60;99.90
25300;DHT22;13241;51.208;4.432;2022-12-19T07:58:32;8.60;99.90
25300;DHT22;13241;51.208;4.432;2022-12-19T08:00:59;8.70;99.90
25300;DHT22;13241;51.208;4.432;2022-12-19T08:03:26;8.70;99.90
25300;DHT22;13241;51.208;4.432;2022-12-19T08:05:59;8.70;99.90
25300;DHT22;13241;51.208;4.432;2022-12-19T08:08:27;8.70;99.90
25300;DHT22;13241;51.208;4.432;2022-12-19T08:10:54;8.70;99.90
25300;DHT22;13241;51.208;4.432;2022-12-19T08:13:20;8.80;99.90
25300;DHT22;13241;51.208;4.432;2022-12-19T08:15:50;8.80;99.90
25300;DHT22;13241;51.208;4.432;2022-12-19T08:18:22;8.80;99.90
25300;DHT22;13241;51.208;4.432;2022-12-19T08:20:52;8.80;99.90
25300;DHT22;13241;51.208;4.432;2022-12-19T08:23:19;8.80;99.90
25300;DHT22;13241;51.208;4.432;2022-12-19T08:25:46;8.90;99.90
25300;DHT22;13241;51.208;4.432;2022-12-19T08:28:13;8.90;99.90
25300;DHT22;13241;51.208;4.432;2022-12-19T08:30:40;8.90;99.90
25300;DHT22;13241;51.208;4.432;2022-12-19T08:33:07;8.90;99.90
25300;DHT22;13241;51.208;4.432;2022-12-19T08:35:34;9.00;99.90
25300;DHT22;13241;51.208;4.432;2022-12-19T08:38:02;9.00;99.90
25300;DHT22;13241;51.208;4.432;2022-12-19T08:40:28;9.00;99.90
25300;DHT22;13241;51.208;4.432;2022-12-19T08:42:55;9.10;99.90
25300;DHT22;13241;51.208;4.432;2022-12-19T08:45:22;9.10;99.90
25300;DHT22;13241;51.208;4.432;2022-12-19T08:47:49;9.10;99.90
25300;DHT22;13241;51.208;4.432;2022-12-19T08:50:16;9.10;99.90
25300;DHT22;13241;51.208;4.432;2022-12-19T08:52:42;9.20;99.90
25300;DHT22;13241;51.208;4.432;2022-12-19T08:55:09;9.20;99.90
25300;DHT22;13241;51.208;4.432;2022-12-19T08:57:37;9.20;99.90
25300;DHT22;13241;51.208;4.432;2022-12-19T09:00:05;9.30;99.90
25300;DHT22;13241;51.208;4.432;2022-12-19T09:02:33;9.30;99.90
25300;DHT22;13241;51.208;4.432;2022-12-19T09:05:00;9.40;99.90
25300;DHT22;13241;51.208;4.432;2022-12-19T09:07:47;9.40;99.90
25300;DHT22;13241;51.208;4.432;2022-12-19T09:10:13;9.50;99.90
25300;DHT22;13241;51.208;4.432;2022-12-19T09:12:41;9.50;99.90
25300;DHT22;13241;51.208;4.432;2022-12-19T09:15:08;9.50;99.90
25300;DHT22;13241;51.208;4.432;2022-12-19T09:17:35;9.60;99.90
25300;DHT22;13241;51.208;4.432;2022-12-19T09:20:03;9.60;99.90
25300;DHT22;13241;51.208;4.432;2022-12-19T09:22:30;9.70;99.90
25300;DHT22;13241;51.208;4.432;2022-12-19T09:24:57;9.70;99.90
25300;DHT22;13241;51.208;4.432;2022-12-19T09:27:24;9.70;99.90
25300;DHT22;13241;51.208;4.432;2022-12-19T09:29:51;9.70;99.90
25300;DHT22;13241;51.208;4.432;2022-12-19T09:32:17;9.70;99.90
25300;DHT22;13241;51.208;4.432;2022-12-19T09:34:44;9.70;99.90
25300;DHT22;13241;51.208;4.432;2022-12-19T09:37:11;9.70;99.90
25300;DHT22;13241;51.208;4.432;2022-12-19T09:39:46;9.70;99.90
25300;DHT22;13241;51.208;4.432;2022-12-19T09:45:46;9.70;99.90
25300;DHT22;13241;51.208;4.432;2022-12-19T09:48:17;9.70;99.90
25300;DHT22;13241;51.208;4.432;2022-12-19T09:51:04;9.70;99.90
25300;DHT22;13241;51.208;4.432;2022-12-19T09:53:54;9.60;99.90
25300;DHT22;13241;51.208;4.432;2022-12-19T09:56:28;9.60;99.90
25300;DHT22;13241;51.208;4.432;2022-12-19T09:59:11;9.50;99.90
25300;DHT22;13241;51.208;4.432;2022-12-19T10:04:34;9.40;99.90
25300;DHT22;13241;51.208;4.432;2022-12-19T10:07:02;9.30;99.90
25300;DHT22;13241;51.208;4.432;2022-12-19T10:09:49;9.30;99.90
25300;DHT22;13241;51.208;4.432;2022-12-19T10:15:36;9.20;99.90
25300;DHT22;13241;51.208;4.432;2022-12-19T10:21:02;9.20;99.90
25300;DHT22;13241;51.208;4.432;2022-12-19T10:24:34;9.20;99.90
25300;DHT22;13241;51.208;4.432;2022-12-19T10:26:56;9.20;99.90
25300;DHT22;13241;51.208;4.432;2022-12-19T10:29:48;9.30;99.90
25300;DHT22;13241;51.208;4.432;2022-12-19T10:35:11;9.30;99.90
25300;DHT22;13241;51.208;4.432;2022-12-19T10:41:19;9.30;99.90
25300;DHT22;13241;51.208;4.432;2022-12-19T10:49:17;9.50;99.90
25300;DHT22;13241;51.208;4.432;2022-12-19T10:52:02;9.50;99.90
25300;DHT22;13241;51.208;4.432;2022-12-19T10:57:22;9.60;99.90
25300;DHT22;13241;51.208;4.432;2022-12-19T10:59:55;9.70;99.90
25300;DHT22;13241;51.208;4.432;2022-12-19T11:16:22;9.90;99.90
25300;DHT22;13241;51.208;4.432;2022-12-19T11:19:23;9.90;99.90
25300;DHT22;13241;51.208;4.432;2022-12-19T11:22:29;9.90;99.90
25300;DHT22;13241;51.208;4.432;2022-12-19T11:25:22;10.00;99.90
25300;DHT22;13241;51.208;4.432;2022-12-19T11:28:31;10.10;99.90
25300;DHT22;13241;51.208;4.432;2022-12-19T11:34:20;10.40;99.90
25300;DHT22;13241;51.208;4.432;2022-12-19T11:39:34;10.60;99.90
25300;DHT22;13241;51.208;4.432;2022-12-19T11:44:55;10.70;99.90
25300;DHT22;13241;51.208;4.432;2022-12-19T11:47:40;10.70;99.90
25300;DHT22;13241;51.208;4.432;2022-12-19T11:55:49;10.80;99.90
25300;DHT22;13241;51.208;4.432;2022-12-19T11:58:18;10.90;99.90
25300;DHT22;13241;51.208;4.432;2022-12-19T12:00:54;10.70;99.90
25300;DHT22;13241;51.208;4.432;2022-12-19T12:06:33;10.60;99.90
25300;DHT22;13241;51.208;4.432;2022-12-19T12:09:19;10.50;99.90
25300;DHT22;13241;51.208;4.432;2022-12-19T12:12:22;10.50;99.90
25300;DHT22;13241;51.208;4.432;2022-12-19T12:15:45;10.50;99.90
25300;DHT22;13241;51.208;4.432;2022-12-19T12:25:28;10.60;99.90
25300;DHT22;13241;51.208;4.432;2022-12-19T12:38:23;10.70;99.90
25300;DHT22;13241;51.208;4.432;2022-12-19T12:41:08;10.80;99.90
25300;DHT22;13241;51.208;4.432;2022-12-19T12:46:22;10.80;99.90
25300;DHT22;13241;51.208;4.432;2022-12-19T12:48:54;10.70;99.90
25300;DHT22;13241;51.208;4.432;2022-12-19T12:51:24;10.70;99.90
25300;DHT22;13241;51.208;4.432;2022-12-19T12:54:07;10.80;99.90
25300;DHT22;13241;51.208;4.432;2022-12-19T12:56:37;10.70;99.90
25300;DHT22;13241;51.208;4.432;2022-12-19T12:59:20;10.80;99.90
25300;DHT22;13241;51.208;4.432;2022-12-19T13:02:06;10.80;99.90
25300;DHT22;13241;51.208;4.432;2022-12-19T13:04:54;10.80;99.90
25300;DHT22;13241;51.208;4.432;2022-12-19T13:07:39;10.80;99.90
25300;DHT22;13241;51.208;4.432;2022-12-19T13:10:17;10.80;99.90
25300;DHT22;13241;51.208;4.432;2022-12-19T13:12:59;10.80;99.90
25300;DHT22;13241;51.208;4.432;2022-12-19T13:25:47;10.80;99.90
25300;DHT22;13241;51.208;4.432;2022-12-19T13:36:47;10.80;99.90
25300;DHT22;13241;51.208;4.432;2022-12-19T13:45:57;10.90;99.90
25300;DHT22;13241;51.208;4.432;2022-12-19T13:48:42;10.80;99.90
25300;DHT22;13241;51.208;4.432;2022-12-19T13:51:11;11.00;99.90
25300;DHT22;13241;51.208;4.432;2022-12-19T13:53:50;11.00;99.90
25300;DHT22;13241;51.208;4.432;2022-12-19T13:56:29;11.10;99.90
25300;DHT22;13241;51.208;4.432;2022-12-19T13:58:59;11.10;99.90
25300;DHT22;13241;51.208;4.432;2022-12-19T14:01:31;11.10;99.90
25300;DHT22;13241;51.208;4.432;2022-12-19T14:04:06;11.20;99.90
25300;DHT22;13241;51.208;4.432;2022-12-19T14:09:15;11.20;99.90
25300;DHT22;13241;51.208;4.432;2022-12-19T14:12:05;11.30;99.90
25300;DHT22;13241;51.208;4.432;2022-12-19T14:14:54;11.40;99.90
25300;DHT22;13241;51.208;4.432;2022-12-19T14:17:46;11.30;99.90
25300;DHT22;13241;51.208;4.432;2022-12-19T14:20:17;11.20;99.90
25300;DHT22;13241;51.208;4.432;2022-12-19T14:23:05;11.20;99.90
25300;DHT22;13241;51.208;4.432;2022-12-19T14:25:52;11.40;99.90
25300;DHT22;13241;51.208;4.432;2022-12-19T14:29:02;11.50;99.90
25300;DHT22;13241;51.208;4.432;2022-12-19T14:31:38;11.60;99.90
25300;DHT22;13241;51.208;4.432;2022-12-19T14:34:30;11.30;99.90
25300;DHT22;13241;51.208;4.432;2022-12-19T14:37:30;11.30;99.90
25300;DHT22;13241;51.208;4.432;2022-12-19T14:40:26;11.10;99.90
25300;DHT22;13241;51.208;4.432;2022-12-19T14:43:23;11.10;99.90
25300;DHT22;13241;51.208;4.432;2022-12-19T14:46:28;11.10;99.90
25300;DHT22;13241;51.208;4.432;2022-12-19T14:49:22;11.00;99.90
25300;DHT22;13241;51.208;4.432;2022-12-19T14:55:28;11.00;99.90
25300;DHT22;13241;51.208;4.432;2022-12-19T14:58:18;11.10;99.90
25300;DHT22;13241;51.208;4.432;2022-12-19T15:01:21;11.00;99.90
25300;DHT22;13241;51.208;4.432;2022-12-19T15:04:01;11.00;99.90
25300;DHT22;13241;51.208;4.432;2022-12-19T15:06:49;11.00;99.90
25300;DHT22;13241;51.208;4.432;2022-12-19T15:09:58;11.00;99.90
25300;DHT22;13241;51.208;4.432;2022-12-19T15:12:57;11.10;99.90
25300;DHT22;13241;51.208;4.432;2022-12-19T15:16:04;10.90;99.90
25300;DHT22;13241;51.208;4.432;2022-12-19T15:21:02;10.90;99.90
25300;DHT22;13241;51.208;4.432;2022-12-19T15:23:31;10.90;99.90
25300;DHT22;13241;51.208;4.432;2022-12-19T15:26:09;11.00;99.90
25300;DHT22;13241;51.208;4.432;2022-12-19T15:31:36;10.90;99.90
25300;DHT22;13241;51.208;4.432;2022-12-19T15:36:56;10.90;99.90
25300;DHT22;13241;51.208;4.432;2022-12-19T15:39:24;10.90;99.90
25300;DHT22;13241;51.208;4.432;2022-12-19T15:41:53;10.80;99.90
25300;DHT22;13241;51.208;4.432;2022-12-19T15:44:33;10.80;99.90
25300;DHT22;13241;51.208;4.432;2022-12-19T15:47:03;10.80;99.90
25300;DHT22;13241;51.208;4.432;2022-12-19T15:49:31;10.80;99.90
25300;DHT22;13241;51.208;4.432;2022-12-19T15:52:00;10.80;99.90
25300;DHT22;13241;51.208;4.432;2022-12-19T15:54:28;10.70;99.90
25300;DHT22;13241;51.208;4.432;2022-12-19T15:57:36;10.80;99.90
25300;DHT22;13241;51.208;4.432;2022-12-19T16:02:41;10.80;99.90
25300;DHT22;13241;51.208;4.432;2022-12-19T16:05:28;10.70;99.90
25300;DHT22;13241;51.208;4.432;2022-12-19T16:07:55;10.60;99.90
25300;DHT22;13241;51.208;4.432;2022-12-19T16:10:24;10.60;99.90
25300;DHT22;13241;51.208;4.432;2022-12-19T16:12:55;10.40;99.90
25300;DHT22;13241;51.208;4.432;2022-12-19T16:15:29;10.40;99.90
25300;DHT22;13241;51.208;4.432;2022-12-19T16:17:58;10.40;99.90
25300;DHT22;13241;51.208;4.432;2022-12-19T16:20:31;10.50;99.90
25300;DHT22;13241;51.208;4.432;2022-12-19T16:22:58;10.50;99.90
25300;DHT22;13241;51.208;4.432;2022-12-19T16:25:35;10.40;99.90
25300;DHT22;13241;51.208;4.432;2022-12-19T16:28:04;10.40;99.90
25300;DHT22;13241;51.208;4.432;2022-12-19T16:30:32;10.40;99.90
25300;DHT22;13241;51.208;4.432;2022-12-19T16:33:00;10.30;99.90
25300;DHT22;13241;51.208;4.432;2022-12-19T16:35:28;10.20;99.90
25300;DHT22;13241;51.208;4.432;2022-12-19T16:38:15;10.20;99.90
25300;DHT22;13241;51.208;4.432;2022-12-19T16:40:43;10.20;99.90
25300;DHT22;13241;51.208;4.432;2022-12-19T16:43:37;10.10;99.90
25300;DHT22;13241;51.208;4.432;2022-12-19T16:46:06;10.20;99.90
25300;DHT22;13241;51.208;4.432;2022-12-19T16:48:34;10.20;99.90
25300;DHT22;13241;51.208;4.432;2022-12-19T16:51:03;10.20;99.90
25300;DHT22;13241;51.208;4.432;2022-12-19T16:53:30;10.10;99.90
25300;DHT22;13241;51.208;4.432;2022-12-19T16:55:58;10.10;99.90
25300;DHT22;13241;51.208;4.432;2022-12-19T16:58:26;10.10;99.90
25300;DHT22;13241;51.208;4.432;2022-12-19T17:00:53;10.10;99.90
25300;DHT22;13241;51.208;4.432;2022-12-19T17:03:28;10.10;99.90
25300;DHT22;13241;51.208;4.432;2022-12-19T17:05:57;10.00;99.90
25300;DHT22;13241;51.208;4.432;2022-12-19T17:08:24;10.20;99.90
25300;DHT22;13241;51.208;4.432;2022-12-19T17:10:52;10.30;99.90
25300;DHT22;13241;51.208;4.432;2022-12-19T17:13:19;10.40;99.90
25300;DHT22;13241;51.208;4.432;2022-12-19T17:15:47;10.50;99.90
25300;DHT22;13241;51.208;4.432;2022-12-19T17:18:33;10.60;99.90
25300;DHT22;13241;51.208;4.432;2022-12-19T17:21:00;10.60;99.90
25300;DHT22;13241;51.208;4.432;2022-12-19T17:23:29;10.60;99.90
25300;DHT22;13241;51.208;4.432;2022-12-19T17:25:57;10.60;99.90
25300;DHT22;13241;51.208;4.432;2022-12-19T17:28:28;10.60;99.90
25300;DHT22;13241;51.208;4.432;2022-12-19T17:30:57;10.60;99.90
25300;DHT22;13241;51.208;4.432;2022-12-19T17:33:31;10.70;99.90
25300;DHT22;13241;51.208;4.432;2022-12-19T17:36:00;10.70;99.90
25300;DHT22;13241;51.208;4.432;2022-12-19T17:38:27;10.70;99.90
25300;DHT22;13241;51.208;4.432;2022-12-19T17:40:54;10.80;99.90
25300;DHT22;13241;51.208;4.432;2022-12-19T17:43:21;10.80;99.90
25300;DHT22;13241;51.208;4.432;2022-12-19T17:45:49;10.80;99.90
25300;DHT22;13241;51.208;4.432;2022-12-19T17:48:26;10.80;99.90
25300;DHT22;13241;51.208;4.432;2022-12-19T17:50:54;10.80;99.90
25300;DHT22;13241;51.208;4.432;2022-12-19T17:53:22;10.80;99.90
25300;DHT22;13241;51.208;4.432;2022-12-19T17:55:49;10.80;99.90
25300;DHT22;13241;51.208;4.432;2022-12-19T17:58:16;10.90;99.90
25300;DHT22;13241;51.208;4.432;2022-12-19T18:00:43;10.90;99.90
25300;DHT22;13241;51.208;4.432;2022-12-19T18:03:30;10.90;99.90
25300;DHT22;13241;51.208;4.432;2022-12-19T18:05:57;10.80;99.90
25300;DHT22;13241;51.208;4.432;2022-12-19T18:08:27;10.80;99.90
25300;DHT22;13241;51.208;4.432;2022-12-19T18:10:57;10.80;99.90
25300;DHT22;13241;51.208;4.432;2022-12-19T18:13:25;10.80;99.90
25300;DHT22;13241;51.208;4.432;2022-12-19T18:15:56;10.80;99.90
25300;DHT22;13241;51.208;4.432;2022-12-19T18:18:34;10.80;99.90
25300;DHT22;13241;51.208;4.432;2022-12-19T18:21:02;10.80;99.90
25300;DHT22;13241;51.208;4.432;2022-12-19T18:23:29;10.80;99.90
25300;DHT22;13241;51.208;4.432;2022-12-19T18:25:58;10.70;99.90
25300;DHT22;13241;51.208;4.432;2022-12-19T18:28:28;10.60;99.90
25300;DHT22;13241;51.208;4.432;2022-12-19T18:31:17;10.50;99.90
25300;DHT22;13241;51.208;4.432;2022-12-19T18:33:46;10.40;99.90
25300;DHT22;13241;51.208;4.432;2022-12-19T18:36:41;10.50;99.90
25300;DHT22;13241;51.208;4.432;2022-12-19T18:39:19;10.40;99.90
25300;DHT22;13241;51.208;4.432;2022-12-19T18:41:46;10.30;99.90
25300;DHT22;13241;51.208;4.432;2022-12-19T18:44:13;10.30;99.90
25300;DHT22;13241;51.208;4.432;2022-12-19T18:46:40;10.40;99.90
25300;DHT22;13241;51.208;4.432;2022-12-19T18:49:14;10.40;99.90
25300;DHT22;13241;51.208;4.432;2022-12-19T18:51:42;10.50;99.90
25300;DHT22;13241;51.208;4.432;2022-12-19T18:54:12;10.30;99.90
25300;DHT22;13241;51.208;4.432;2022-12-19T18:56:39;10.30;99.90